Time;durP1;ratioP1;P1;durP2;ratioP2;P2;SDS_P1;SDS_P2;PMS_P1;PMS_P2;Temp;Humidity;BMP_temperature;BMP_pressure;BME280_temperature;BME280_humidity;BME280_pressure;Samples;Min_cycle;Max_cycle;Signal;HPM_P1;HPM_P2
2022/08/15 00:01:14;;;;;;;14.48;7.22;;;;;;;21.14;100.00;99429.50;5151838;27;20137;-56
2022/08/15 00:03:44;;;;;;;8.63;6.78;;;;;;;21.23;100.00;99451.22;5151800;27;20082;-56
2022/08/15 00:06:13;;;;;;;11.88;6.97;;;;;;;21.49;100.00;99436.34;5152095;27;20461;-55
2022/08/15 00:08:43;;;;;;;7.95;6.53;;;;;;;21.08;100.00;99428.41;5151685;27;20505;-56
2022/08/15 00:11:15;;;;;;;7.55;6.32;;;;;;;21.31;100.00;99444.28;5151869;27;20046;-57
2022/08/15 00:13:44;;;;;;;10.82;6.68;;;;;;;21.31;100.00;99422.75;5152003;27;20053;-57
2022/08/15 00:16:13;;;;;;;10.45;6.68;;;;;;;21.34;100.00;99429.47;5151646;27;20051;-55
2022/08/15 00:18:42;;;;;;;9.60;6.70;;;;;;;21.39;100.00;99428.97;5151622;27;20046;-56
2022/08/15 00:21:10;;;;;;;8.13;6.50;;;;;;;21.33;100.00;99413.97;5151633;27;20047;-56
2022/08/15 00:23:40;;;;;;;9.18;6.35;;;;;;;21.26;100.00;99426.06;5151305;27;20043;-56
2022/08/15 00:26:09;;;;;;;9.00;6.88;;;;;;;21.01;100.00;99436.94;5151671;27;20134;-54
2022/08/15 00:28:35;;;;;;;9.80;6.70;;;;;;;21.16;100.00;99435.44;5151598;27;20054;-56
2022/08/15 00:31:01;;;;;;;8.30;6.60;;;;;;;21.25;100.00;99430.03;5151325;27;20050;-57
2022/08/15 00:33:28;;;;;;;8.90;6.32;;;;;;;21.27;100.00;99427.63;5151610;27;20053;-57
2022/08/15 00:35:55;;;;;;;8.07;6.95;;;;;;;21.08;100.00;99431.19;5151315;27;20051;-56
2022/08/15 00:38:24;;;;;;;11.27;6.78;;;;;;;20.93;100.00;99461.38;5151472;27;20138;-57
2022/08/15 00:43:43;;;;;;;8.68;6.53;;;;;;;20.86;100.00;99473.44;5158415;27;20130;-57
2022/08/15 00:46:12;;;;;;;7.38;6.30;;;;;;;20.88;100.00;99478.56;5158223;27;20094;-55
2022/08/15 00:48:42;;;;;;;10.05;7.00;;;;;;;20.88;100.00;99490.50;5158056;27;20527;-55
2022/08/15 00:51:12;;;;;;;11.05;6.78;;;;;;;20.80;100.00;99489.06;5158266;27;20147;-56
2022/08/15 00:53:41;;;;;;;8.65;7.18;;;;;;;20.72;100.00;99492.41;5157992;27;20047;-57
2022/08/15 00:56:09;;;;;;;8.63;6.65;;;;;;;20.83;100.00;99496.59;5158399;27;20115;-56
2022/08/15 00:58:35;;;;;;;11.82;7.20;;;;;;;20.74;100.00;99496.34;5158039;27;20054;-57
2022/08/15 01:01:03;;;;;;;11.45;7.38;;;;;;;20.64;100.00;99494.53;5158334;27;20050;-56
2022/08/15 01:03:33;;;;;;;10.27;7.18;;;;;;;20.66;100.00;99497.72;5158059;27;20069;-54
2022/08/15 01:06:01;;;;;;;10.30;9.20;;;;;;;20.71;100.00;99493.63;5158035;27;20050;-54
2022/08/15 01:08:31;;;;;;;10.60;6.88;;;;;;;20.74;100.00;99501.13;5157884;27;20141;-55
2022/08/15 01:11:02;;;;;;;9.63;7.00;;;;;;;20.76;100.00;99501.47;5157858;27;20086;-57
2022/08/15 01:13:28;;;;;;;12.25;6.40;;;;;;;20.65;100.00;99488.53;5157951;27;20520;-57
2022/08/15 01:15:55;;;;;;;8.43;7.40;;;;;;;20.68;100.00;99489.69;5157705;27;20042;-55
2022/08/15 01:18:22;;;;;;;11.25;7.07;;;;;;;20.37;100.00;99506.50;5157797;27;20053;-55
2022/08/15 01:20:52;;;;;;;10.48;7.25;;;;;;;20.70;100.00;99514.34;5157749;27;20137;-55
2022/08/15 01:23:23;;;;;;;8.35;7.10;;;;;;;20.68;100.00;99496.03;5157850;27;20050;-54
2022/08/15 01:25:57;;;;;;;8.48;6.85;;;;;;;20.85;100.00;99485.00;5157783;27;20043;-56
2022/08/15 01:28:27;;;;;;;11.68;6.82;;;;;;;20.73;100.00;99491.22;5157501;27;20054;-55
2022/08/15 01:30:58;;;;;;;8.85;7.07;;;;;;;20.76;100.00;99501.47;5157669;27;20058;-56
2022/08/15 01:33:25;;;;;;;12.98;6.68;;;;;;;20.73;100.00;99488.44;5157668;27;20527;-56
2022/08/15 01:35:54;;;;;;;9.85;7.28;;;;;;;20.57;100.00;99489.88;5157537;27;20047;-56
2022/08/15 01:38:25;;;;;;;13.23;7.70;;;;;;;20.62;100.00;99489.38;5157360;27;20050;-56
2022/08/15 01:40:59;;;;;;;8.40;6.90;;;;;;;20.56;100.00;99484.72;5157681;27;20072;-55
2022/08/15 01:43:30;;;;;;;8.75;6.70;;;;;;;20.72;100.00;99500.78;5157547;27;20050;-53
2022/08/15 01:46:02;;;;;;;10.40;6.95;;;;;;;20.75;100.00;99486.00;5157396;27;20054;-56
2022/08/15 01:48:34;;;;;;;9.05;7.07;;;;;;;20.63;100.00;99501.34;5157472;27;20061;-55
2022/08/15 01:51:04;;;;;;;8.55;6.93;;;;;;;20.40;100.00;99510.44;5157777;27;20051;-55
2022/08/15 01:53:37;;;;;;;12.63;7.40;;;;;;;20.38;100.00;99518.44;5154289;27;20191;-55
2022/08/15 01:56:07;;;;;;;13.60;8.05;;;;;;;20.29;100.00;99520.97;5154056;27;20433;-53
2022/08/15 01:58:37;;;;;;;10.13;7.78;;;;;;;20.47;100.00;99515.91;5154006;27;20047;-56
2022/08/15 02:01:08;;;;;;;10.98;7.70;;;;;;;20.32;100.00;99506.19;5153847;27;20107;-56
2022/08/15 02:03:35;;;;;;;11.95;7.85;;;;;;;20.26;100.00;99514.25;5154085;27;20138;-56
2022/08/15 02:06:01;;;;;;;13.48;7.68;;;;;;;19.92;100.00;99517.94;5153866;27;20103;-56
2022/08/15 02:08:27;;;;;;;9.48;7.55;;;;;;;20.25;100.00;99515.44;5153775;27;20486;-56
2022/08/15 02:10:54;;;;;;;15.65;7.45;;;;;;;20.30;100.00;99514.19;5153619;27;20087;-55
2022/08/15 02:13:21;;;;;;;8.50;7.22;;;;;;;20.27;100.00;99515.81;5153544;27;20413;-53
2022/08/15 02:15:47;;;;;;;14.02;8.00;;;;;;;20.24;100.00;99519.44;5153661;27;20297;-55
2022/08/15 02:18:13;;;;;;;9.85;7.93;;;;;;;20.21;100.00;99518.28;5153630;27;20043;-55
2022/08/15 02:20:40;;;;;;;11.07;7.80;;;;;;;20.14;100.00;99515.63;5153517;27;20054;-56
2022/08/15 02:23:07;;;;;;;11.85;8.00;;;;;;;20.26;100.00;99514.25;5153627;27;20433;-55
2022/08/15 02:25:35;;;;;;;12.60;8.00;;;;;;;20.17;100.00;99512.00;5153709;27;20051;-56
2022/08/15 02:28:01;;;;;;;12.05;7.80;;;;;;;19.95;100.00;99507.97;5153239;27;20047;-54
2022/08/15 02:30:31;;;;;;;13.52;8.57;;;;;;;20.11;100.00;99502.53;5153409;27;20047;-55
2022/08/15 02:32:58;;;;;;;10.77;8.20;;;;;;;20.12;100.00;99504.09;5153377;27;20078;-56
2022/08/15 02:35:24;;;;;;;12.48;11.38;;;;;;;19.75;100.00;99486.38;5153209;27;20547;-56
2022/08/15 02:37:50;;;;;;;14.30;11.93;;;;;;;19.89;100.00;99481.81;5153158;27;20099;-56
2022/08/15 02:40:19;;;;;;;13.57;12.20;;;;;;;19.78;100.00;99476.41;5153208;27;20091;-55
2022/08/15 02:42:46;;;;;;;13.48;12.07;;;;;;;19.80;100.00;99474.00;5153795;27;20043;-57
2022/08/15 02:45:13;;;;;;;11.60;8.75;;;;;;;19.79;100.00;99469.63;5153025;27;20114;-55
2022/08/15 02:47:43;;;;;;;12.77;9.57;;;;;;;19.98;100.00;99480.06;5153074;27;20509;-55
2022/08/15 02:50:13;;;;;;;11.85;7.90;;;;;;;19.71;100.00;99487.63;5153055;27;20057;-55
2022/08/15 02:52:40;;;;;;;15.88;9.60;;;;;;;19.72;100.00;99459.41;5153012;27;20054;-55
2022/08/15 02:55:07;;;;;;;14.57;9.30;;;;;;;19.77;100.00;99476.84;5153079;27;20046;-55
2022/08/15 02:57:33;;;;;;;12.43;9.40;;;;;;;19.84;100.00;99485.09;5153040;27;20046;-56
2022/08/15 03:00:01;;;;;;;13.43;9.20;;;;;;;19.68;100.00;99463.44;5152776;27;20080;-56
2022/08/15 03:02:27;;;;;;;13.75;12.50;;;;;;;19.59;100.00;99446.44;5153032;27;20051;-56
2022/08/15 03:04:54;;;;;;;13.82;12.55;;;;;;;19.38;100.00;99442.78;5152446;27;20573;-54
2022/08/15 03:07:20;;;;;;;11.32;9.18;;;;;;;19.70;100.00;99439.56;5152743;27;20095;-55
2022/08/15 03:09:47;;;;;;;19.90;9.48;;;;;;;19.73;100.00;99455.44;5152786;27;20057;-56
2022/08/15 03:12:14;;;;;;;14.85;13.38;;;;;;;19.89;100.00;99467.91;5152661;27;20518;-56
2022/08/15 03:14:40;;;;;;;15.23;9.52;;;;;;;19.67;100.00;99462.66;5152567;27;20051;-56
2022/08/15 03:17:09;;;;;;;14.43;12.95;;;;;;;19.67;100.00;99456.31;5152923;27;20050;-56
2022/08/15 03:19:36;;;;;;;14.63;13.32;;;;;;;19.69;100.00;99445.53;5152760;27;20046;-53
2022/08/15 03:22:04;;;;;;;15.48;13.73;;;;;;;19.64;100.00;99451.59;5152526;27;20092;-57
2022/08/15 03:24:32;;;;;;;10.07;8.57;;;;;;;19.47;100.00;99442.25;5152618;27;20050;-56
2022/08/15 03:26:59;;;;;;;15.85;9.27;;;;;;;19.88;100.00;99455.19;5152444;27;20075;-57
2022/08/15 03:29:26;;;;;;;15.20;13.60;;;;;;;20.19;100.00;99467.84;5152686;27;20089;-56
2022/08/15 03:31:53;;;;;;;15.93;8.98;;;;;;;20.42;100.00;99499.66;5152546;27;20046;-56
2022/08/15 03:34:22;;;;;;;8.93;7.78;;;;;;;20.62;100.00;99516.47;5152414;27;20046;-57
2022/08/15 03:36:49;;;;;;;16.77;9.45;;;;;;;21.05;100.00;99532.41;5152220;27;20051;-54
2022/08/15 03:39:16;;;;;;;13.10;11.82;;;;;;;21.20;100.00;99511.41;5152709;27;20052;-53
2022/08/15 03:41:43;;;;;;;9.77;8.77;;;;;;;21.64;100.00;99463.91;5152200;27;20054;-54
2022/08/15 03:44:10;;;;;;;10.23;7.80;;;;;;;21.65;100.00;99454.31;5152143;27;20053;-56
2022/08/15 03:46:37;;;;;;;9.35;7.93;;;;;;;21.70;100.00;99395.22;5152314;27;20050;-57
2022/08/15 03:49:04;;;;;;;16.58;8.55;;;;;;;21.80;100.00;99408.13;5152172;27;20059;-57
2022/08/15 03:51:30;;;;;;;11.95;8.70;;;;;;;21.89;100.00;99399.91;5152196;27;20047;-57
2022/08/15 03:53:59;;;;;;;11.90;8.52;;;;;;;22.13;100.00;99385.78;5152117;27;20050;-54
2022/08/15 03:56:28;;;;;;;12.75;11.45;;;;;;;22.14;100.00;99321.13;5152249;27;20069;-55
2022/08/15 03:58:56;;;;;;;10.32;9.20;;;;;;;21.92;100.00;99387.09;5151920;27;20054;-57
2022/08/15 04:01:24;;;;;;;12.40;8.18;;;;;;;22.27;100.00;99340.75;5152279;27;20050;-57
2022/08/15 04:03:51;;;;;;;13.02;9.13;;;;;;;22.66;100.00;99230.69;5151869;27;20047;-56
2022/08/15 04:06:22;;;;;;;9.88;8.18;;;;;;;22.95;100.00;99113.19;5151801;27;20046;-56
2022/08/15 04:08:50;;;;;;;13.25;8.48;;;;;;;22.36;100.00;99083.97;5151768;27;20093;-57
2022/08/15 04:11:18;;;;;;;11.93;9.93;;;;;;;22.99;100.00;99071.94;5151741;27;20054;-56
2022/08/15 04:13:45;;;;;;;12.02;10.57;;;;;;;22.37;100.00;99190.88;5151893;27;20043;-56
2022/08/15 04:16:13;;;;;;;19.45;11.75;;;;;;;21.94;100.00;99250.69;5150720;27;20046;-54
2022/08/15 04:18:40;;;;;;;10.68;8.52;;;;;;;21.63;100.00;99390.59;5151724;27;20505;-56
2022/08/15 04:21:10;;;;;;;13.93;9.82;;;;;;;21.66;100.00;99394.50;5151625;27;20538;-53
2022/08/15 04:23:37;;;;;;;12.90;9.27;;;;;;;21.33;100.00;99451.00;5151742;27;20402;-56
2022/08/15 04:26:04;;;;;;;14.45;9.10;;;;;;;21.29;100.00;99475.38;5151605;27;20043;-55
2022/08/15 04:28:30;;;;;;;15.32;9.05;;;;;;;21.21;100.00;99493.47;5151745;27;20082;-55
2022/08/15 04:30:59;;;;;;;12.77;11.68;;;;;;;21.21;100.00;99506.63;5151698;27;20043;-55
2022/08/15 04:33:28;;;;;;;12.40;9.50;;;;;;;21.46;100.00;99497.75;5151434;27;20111;-57
2022/08/15 04:35:56;;;;;;;10.98;9.40;;;;;;;21.29;100.00;99491.31;5151237;27;20050;-57
2022/08/15 04:38:22;;;;;;;14.25;9.10;;;;;;;21.28;100.00;99496.09;5151535;27;20057;-56
2022/08/15 04:40:50;;;;;;;12.90;9.27;;;;;;;21.03;100.00;99507.75;5151357;27;20047;-55
2022/08/15 04:43:18;;;;;;;11.90;9.57;;;;;;;21.25;100.00;99508.09;5151327;27;20089;-56
2022/08/15 04:45:45;;;;;;;13.13;8.40;;;;;;;21.09;100.00;99499.66;5151464;27;20498;-57
2022/08/15 04:48:14;;;;;;;14.13;9.23;;;;;;;21.34;100.00;99493.59;5151214;27;20540;-53
2022/08/15 04:50:43;;;;;;;12.15;10.98;;;;;;;21.55;100.00;99493.16;5151487;27;20129;-53
2022/08/15 04:53:09;;;;;;;11.48;8.93;;;;;;;21.44;100.00;99489.06;5151236;27;20046;-54
2022/08/15 04:55:41;;;;;;;11.38;8.85;;;;;;;21.41;100.00;99506.63;5151277;27;20520;-55
2022/08/15 04:58:08;;;;;;;10.27;8.60;;;;;;;21.52;100.00;99496.81;5150717;27;20437;-56
2022/08/15 05:00:37;;;;;;;12.48;8.57;;;;;;;21.41;100.00;99501.84;5151072;27;20046;-61
2022/08/15 05:03:06;;;;;;;12.88;8.95;;;;;;;20.85;100.00;99519.22;5150802;27;20051;-58
2022/08/15 05:05:36;;;;;;;16.88;9.57;;;;;;;21.12;100.00;99526.69;5151248;27;20497;-58
2022/08/15 05:08:02;;;;;;;13.65;9.68;;;;;;;21.22;100.00;99514.53;5151397;27;20057;-61
2022/08/15 05:10:29;;;;;;;12.30;9.25;;;;;;;21.62;100.00;99503.38;5151344;27;20111;-57
2022/08/15 05:12:55;;;;;;;13.80;9.73;;;;;;;21.41;100.00;99501.84;5151023;27;20604;-56
2022/08/15 05:15:22;;;;;;;14.82;12.38;;;;;;;21.19;100.00;99498.66;5151070;27;20462;-57
2022/08/15 05:17:49;;;;;;;10.35;8.70;;;;;;;21.26;100.00;99517.25;5151087;27;20046;-53
2022/08/15 05:20:18;;;;;;;16.42;9.18;;;;;;;21.45;100.00;99505.34;5151110;27;20149;-59
2022/08/15 05:22:57;;;;;;;12.38;8.50;;;;;;;21.35;100.00;99512.72;5151468;27;20467;-58
2022/08/15 05:25:24;;;;;;;16.98;8.73;;;;;;;21.49;100.00;99508.06;5150564;27;20058;-58
2022/08/15 05:27:51;;;;;;;11.85;9.88;;;;;;;21.66;100.00;99509.69;5151715;27;20142;-56
2022/08/15 05:30:19;;;;;;;15.68;8.85;;;;;;;21.65;100.00;99496.16;5154239;27;20057;-57
2022/08/15 05:32:45;;;;;;;18.48;8.68;;;;;;;21.73;100.00;99501.16;5154392;27;20505;-58
2022/08/15 05:35:11;;;;;;;14.20;9.23;;;;;;;21.76;100.00;99493.91;5154360;27;20050;-58
2022/08/15 05:37:38;;;;;;;11.88;8.90;;;;;;;21.88;100.00;99489.66;5154318;27;20073;-58
2022/08/15 05:40:07;;;;;;;13.45;11.93;;;;;;;22.00;100.00;99483.41;5154324;27;20142;-59
2022/08/15 05:42:44;;;;;;;15.45;8.23;;;;;;;21.91;100.00;99489.59;5153992;27;20047;-59
2022/08/15 05:45:17;;;;;;;13.95;12.52;;;;;;;22.05;100.00;99464.13;5153993;27;20460;-59
2022/08/15 05:47:51;;;;;;;16.00;9.87;;;;;;;22.13;100.00;99463.97;5153927;27;20141;-59
2022/08/15 05:50:30;;;;;;;11.60;9.05;;;;;;;22.07;100.00;99477.66;5154068;27;20103;-61
2022/08/15 05:53:07;;;;;;;16.17;9.40;;;;;;;22.19;100.00;99463.03;5153742;27;20043;-60
2022/08/15 05:55:44;;;;;;;12.75;9.27;;;;;;;22.02;100.00;99455.84;5153895;27;20051;-59
2022/08/15 05:58:29;;;;;;;17.15;9.15;;;;;;;21.93;100.00;99503.13;5153772;27;20043;-58
2022/08/15 06:01:05;;;;;;;15.20;11.93;;;;;;;21.85;100.00;99499.69;5153875;27;20099;-60
2022/08/15 06:03:36;;;;;;;14.63;8.80;;;;;;;22.24;100.00;99484.84;5153661;27;20540;-61
2022/08/15 06:06:09;;;;;;;17.50;9.23;;;;;;;22.93;100.00;99397.25;5153966;27;20054;-58
2022/08/15 06:08:41;;;;;;;12.38;8.43;;;;;;;23.80;100.00;99222.66;5153784;27;20054;-56
2022/08/15 06:11:13;;;;;;;12.50;9.15;;;;;;;24.04;100.00;99030.56;5153755;27;20061;-61
2022/08/15 06:13:43;;;;;;;10.80;7.68;;;;;;;23.91;100.00;99043.88;5153329;27;20080;-62
2022/08/15 06:16:16;;;;;;;12.50;8.98;;;;;;;23.65;100.00;99034.81;5152885;27;20047;-57
2022/08/15 06:18:44;;;;;;;12.23;10.77;;;;;;;23.87;100.00;99119.59;5153500;27;20054;-58
2022/08/15 06:21:20;;;;;;;12.00;8.35;;;;;;;23.47;100.00;99063.47;5153501;27;20051;-56
2022/08/15 06:23:54;;;;;;;15.88;8.00;;;;;;;24.48;100.00;99029.66;5153280;27;20087;-58
2022/08/15 06:26:27;;;;;;;;;;;;;;;25.65;100.00;98613.94;5153628;27;20062;-55
2022/08/15 06:29:10;;;;;;;13.90;7.43;;;;;;;25.67;100.00;98380.50;5153705;27;20050;-62
2022/08/15 06:31:39;;;;;;;12.27;9.70;;;;;;;25.85;100.00;98315.69;5153280;27;20284;-61
2022/08/15 06:34:17;;;;;;;10.73;9.73;;;;;;;26.02;100.00;98291.44;5153545;27;20501;-61
2022/08/15 06:36:52;;;;;;;11.90;9.18;;;;;;;26.04;100.00;98263.63;5153020;27;20050;-62
2022/08/15 06:39:28;;;;;;;10.90;9.80;;;;;;;25.94;100.00;98251.00;5152486;27;20051;-63
2022/08/15 06:42:05;;;;;;;10.13;9.13;;;;;;;26.38;100.00;98157.22;5152941;27;20053;-63
2022/08/15 06:44:33;;;;;;;10.25;9.23;;;;;;;26.75;100.00;98103.88;5153107;27;20073;-62
2022/08/15 06:47:03;;;;;;;11.45;8.98;;;;;;;26.79;100.00;98114.13;5152991;27;20049;-62
2022/08/15 06:49:32;;;;;;;9.63;8.73;;;;;;;27.10;100.00;98063.44;5152811;27;20059;-61
2022/08/15 06:51:59;;;;;;;14.48;8.90;;;;;;;26.70;100.00;98058.88;5153183;27;20043;-63
2022/08/15 06:54:28;;;;;;;11.13;8.90;;;;;;;26.37;100.00;98101.53;5153236;27;20064;-63
2022/08/15 06:57:02;;;;;;;10.70;9.65;;;;;;;25.57;100.00;98236.72;5152819;27;20050;-62
2022/08/15 06:59:39;;;;;;;15.73;10.05;;;;;;;25.63;100.00;98270.47;5152441;27;20505;-65
2022/08/15 07:02:18;;;;;;;11.05;9.10;;;;;;;26.60;100.00;98178.41;5153010;27;20487;-62
2022/08/15 07:04:58;;;;;;;11.13;9.48;;;;;;;27.12;100.00;98032.75;5152938;27;20480;-62
2022/08/15 07:07:35;;;;;;;8.90;8.10;;;;;;;27.44;100.00;97996.06;5152661;27;20429;-61
2022/08/15 07:10:11;;;;;;;8.15;7.13;;;;;;;28.46;100.00;97977.16;5152776;27;20137;-62
2022/08/15 07:12:45;;;;;;;10.38;7.88;;;;;;;28.38;100.00;97988.94;5152863;27;20046;-63
2022/08/15 07:15:21;;;;;;;10.02;8.45;;;;;;;27.89;100.00;97991.28;5152817;27;20054;-62
2022/08/15 07:17:51;;;;;;;9.50;7.72;;;;;;;28.03;100.00;97992.31;5152490;27;20055;-62
2022/08/15 07:20:17;;;;;;;11.35;8.13;;;;;;;28.70;100.00;97994.28;5152420;27;20057;-62
2022/08/15 07:22:44;;;;;;;10.15;7.03;;;;;;;27.41;100.00;97980.94;5152334;27;20050;-62
2022/08/15 07:25:14;;;;;;;9.23;7.63;;;;;;;27.41;100.00;97985.81;5152236;27;20133;-62
2022/08/15 07:27:41;;;;;;;11.63;7.45;;;;;;;26.70;100.00;97980.94;5152846;27;20047;-62
2022/08/15 07:30:20;;;;;;;9.65;7.18;;;;;;;26.21;100.00;97987.75;5152802;27;20169;-62
2022/08/15 07:32:50;;;;;;;9.00;7.72;;;;;;;26.55;100.00;97993.63;5152499;27;20047;-62
2022/08/15 07:35:24;;;;;;;9.73;7.78;;;;;;;26.32;100.00;97999.06;5152196;27;20516;-62
2022/08/15 07:37:56;;;;;;;11.40;7.60;;;;;;;26.61;100.00;98014.88;5152293;27;20051;-62
2022/08/15 07:40:26;;;;;;;8.40;7.50;;;;;;;27.17;100.00;97975.78;5152058;27;20046;-62
2022/08/15 07:42:54;;;;;;;9.10;7.47;;;;;;;27.46;100.00;97968.19;5152039;27;20517;-62
2022/08/15 07:45:28;;;;;;;8.13;7.15;;;;;;;27.54;100.00;97974.84;5151830;27;20089;-62
2022/08/15 07:47:56;;;;;;;8.27;7.53;;;;;;;27.94;100.00;97986.94;5152035;27;20517;-62
2022/08/15 07:50:38;;;;;;;9.15;6.63;;;;;;;28.51;100.00;98027.13;5151608;27;20536;-62
2022/08/15 07:53:16;;;;;;;9.40;6.18;;;;;;;27.81;100.00;98113.41;5151302;27;20043;-62
2022/08/15 07:55:43;;;;;;;12.80;6.25;;;;;;;28.12;100.00;98107.56;5151947;27;20054;-62
2022/08/15 07:58:18;;;;;;;7.95;5.47;;;;;;;27.64;100.00;98102.81;5151776;27;20047;-62
2022/08/15 08:00:52;;;;;;;8.07;5.38;;;;;;;27.88;100.00;98074.22;5151751;27;20576;-62
2022/08/15 08:03:24;;;;;;;6.85;5.70;;;;;;;27.73;100.00;98092.63;5151966;27;20076;-62
2022/08/15 08:06:00;;;;;;;11.40;6.40;;;;;;;27.90;100.00;98111.13;5151949;27;20192;-62
2022/08/15 08:08:37;;;;;;;8.77;5.97;;;;;;;27.80;100.00;98070.38;5151790;27;20512;-62
2022/08/15 08:11:10;;;;;;;8.15;5.85;;;;;;;27.78;100.00;98060.91;5151829;27;20559;-62
2022/08/15 08:13:44;;;;;;;7.83;5.70;;;;;;;27.82;100.00;98048.09;5151721;27;20141;-62
2022/08/15 08:16:19;;;;;;;7.15;5.78;;;;;;;28.11;100.00;98046.84;5151299;27;20043;-63
2022/08/15 08:18:55;;;;;;;7.28;5.47;;;;;;;27.81;100.00;98086.00;5151480;27;20103;-62
2022/08/15 08:21:28;;;;;;;6.40;5.80;;;;;;;27.60;100.00;98051.63;5151480;27;20051;-62
2022/08/15 08:23:59;;;;;;;6.30;5.70;;;;;;;27.25;100.00;98057.66;5151655;27;20051;-62
2022/08/15 08:26:32;;;;;;;9.45;6.20;;;;;;;27.38;100.00;98083.28;5151691;27;20084;-62
2022/08/15 08:29:05;;;;;;;11.43;6.05;;;;;;;27.39;100.00;98062.31;5151406;27;20133;-61
2022/08/15 08:31:40;;;;;;;7.97;5.63;;;;;;;28.10;100.00;98095.28;5151687;27;20047;-62
2022/08/15 08:34:14;;;;;;;5.68;5.28;;;;;;;28.28;100.00;98125.00;5151345;27;20485;-61
2022/08/15 08:36:56;;;;;;;6.43;5.55;;;;;;;28.37;100.00;98131.16;5151482;27;20087;-62
2022/08/15 08:39:33;;;;;;;7.68;5.80;;;;;;;28.17;100.00;98099.63;5151223;27;20102;-62
2022/08/15 08:42:07;;;;;;;11.30;5.28;;;;;;;28.84;100.00;98116.53;5151215;27;20042;-62
2022/08/15 08:44:42;;;;;;;7.20;5.40;;;;;;;28.93;100.00;98149.38;5151287;27;20513;-62
2022/08/15 08:47:24;;;;;;;9.90;6.20;;;;;;;29.59;100.00;98194.88;5151243;27;20197;-62
2022/08/15 08:50:05;;;;;;;6.78;6.05;;;;;;;29.68;100.00;98180.50;5151588;27;20498;-62
2022/08/15 08:52:40;;;;;;;7.00;5.93;;;;;;;29.73;100.00;98168.44;5151018;27;20047;-62
2022/08/15 08:55:11;;;;;;;7.53;6.57;;;;;;;29.82;100.00;98187.13;5151010;27;20051;-62
2022/08/15 08:57:46;;;;;;;7.68;6.35;;;;;;;30.21;100.00;98203.91;5151323;27;20061;-62
2022/08/15 09:00:16;;;;;;;11.80;6.28;;;;;;;30.92;100.00;98194.66;5150960;27;20054;-62
2022/08/15 09:02:46;;;;;;;7.57;5.95;;;;;;;29.86;100.00;98210.25;5152091;27;20490;-62
2022/08/15 09:05:29;;;;;;;7.30;5.75;;;;;;;29.60;100.00;98194.41;5154601;27;20057;-62
2022/08/15 09:08:00;;;;;;;8.40;5.80;;;;;;;30.48;100.00;98230.47;5154762;27;20051;-62
2022/08/15 09:10:32;;;;;;;10.50;5.93;;;;;;;30.71;100.00;98273.53;5154602;27;20146;-62
2022/08/15 09:15:48;;;;;;;9.35;6.38;;;;;;;29.37;100.00;98182.38;5154637;27;20050;-62
2022/08/15 09:18:18;;;;;;;6.95;6.10;;;;;;;29.58;100.00;98160.25;5154609;27;20083;-62
2022/08/15 09:20:46;;;;;;;8.88;5.88;;;;;;;29.26;100.00;98185.25;5154945;27;20054;-61
2022/08/15 09:23:13;;;;;;;6.85;5.80;;;;;;;29.60;100.00;98154.13;5154139;27;20057;-59
2022/08/15 09:25:51;;;;;;;15.75;5.97;;;;;;;29.46;100.00;98170.81;5154204;27;20129;-60
2022/08/15 09:28:25;;;;;;;11.27;6.43;;;;;;;29.87;100.00;98245.69;5153259;27;20055;-62
2022/08/15 09:30:55;;;;;;;8.63;6.20;;;;;;;29.49;100.00;98141.56;5138057;27;20055;-60
2022/08/15 09:34:00;;;;;;;7.50;5.90;;;;;;;29.41;100.00;98100.25;5154412;27;20046;-61
2022/08/15 09:37:00;;;;;;;10.00;6.00;;;;;;;30.02;100.00;98181.13;5154019;27;20046;-62
2022/08/15 09:39:51;;;;;;;11.98;5.60;;;;;;;29.17;100.00;98179.88;5153940;27;20051;-57
2022/08/15 09:42:36;;;;;;;8.85;5.93;;;;;;;28.84;100.00;98179.38;5151560;27;20054;-64
2022/08/15 09:45:18;;;;;;;6.63;5.97;;;;;;;28.82;100.00;98130.38;5154195;27;20101;-61
2022/08/15 09:48:13;;;;;;;6.38;5.40;;;;;;;29.40;100.00;98170.06;5154079;27;20139;-59
2022/08/15 09:51:03;;;;;;;7.97;5.82;;;;;;;29.38;100.00;98223.44;5153665;27;20054;-61
2022/08/15 09:53:47;;;;;;;7.90;5.13;;;;;;;29.24;100.00;98168.81;5139176;27;20061;-61
2022/08/15 09:56:19;;;;;;;9.70;5.07;;;;;;;30.15;100.00;98243.47;5153978;27;20081;-56
2022/08/15 09:58:51;;;;;;;12.48;5.30;;;;;;;29.95;100.00;98229.72;5153558;27;20054;-57
2022/08/15 10:01:21;;;;;;;8.45;4.68;;;;;;;30.36;100.00;98282.75;5154010;27;20144;-59
2022/08/15 10:04:08;;;;;;;9.18;4.85;;;;;;;30.46;100.00;98301.72;5153991;27;20097;-61
2022/08/15 10:07:17;;;;;;;5.75;4.97;;;;;;;30.68;100.00;98322.66;5154040;27;20073;-61
2022/08/15 10:10:09;;;;;;;8.70;5.15;;;;;;;30.69;100.00;98330.63;5153766;27;20061;-58
2022/08/15 10:12:37;;;;;;;8.65;5.05;;;;;;;30.55;100.00;98316.81;5153534;27;20129;-61
2022/08/15 10:15:30;;;;;;;8.93;5.55;;;;;;;30.25;100.00;98266.59;5152383;27;20042;-59
2022/08/15 10:17:57;;;;;;;6.20;5.60;;;;;;;30.37;100.00;98268.06;5153770;27;20521;-54
2022/08/15 10:21:00;;;;;;;6.70;5.00;;;;;;;30.59;100.00;98247.38;5153447;27;20129;-55
2022/08/15 10:23:31;;;;;;;7.78;4.68;;;;;;;30.38;100.00;98282.97;5153682;27;20066;-57
2022/08/15 10:26:32;;;;;;;10.18;5.10;;;;;;;30.77;100.00;98301.81;5153152;27;20050;-63
2022/08/15 10:29:05;;;;;;;8.32;4.88;;;;;;;30.93;100.00;98324.34;5049402;28;20413;-63
2022/08/15 10:31:40;;;;;;;5.70;4.60;;;;;;;30.74;100.00;98314.16;5049116;28;20539;-64
2022/08/15 10:34:19;;;;;;;11.70;5.35;;;;;;;30.90;100.00;98294.25;5049202;28;20053;-60
2022/08/15 10:37:07;;;;;;;8.63;5.10;;;;;;;30.93;100.00;98239.44;5049220;28;20049;-58
2022/08/15 10:39:44;;;;;;;9.38;5.80;;;;;;;30.67;100.00;98236.25;5048993;28;20059;-57
2022/08/15 10:42:26;;;;;;;8.85;5.30;;;;;;;30.93;100.00;98218.88;5048977;28;20153;-58
2022/08/15 10:45:02;;;;;;;7.35;5.50;;;;;;;29.86;100.00;98160.16;5048966;28;20106;-58
2022/08/15 10:47:37;;;;;;;5.22;4.72;;;;;;;29.78;100.00;98133.72;5048994;28;20147;-58
2022/08/15 10:50:14;;;;;;;9.50;5.07;;;;;;;29.83;100.00;98158.38;5048897;28;20057;-57
2022/08/15 10:52:56;;;;;;;8.40;5.15;;;;;;;29.77;100.00;98175.34;5048841;28;20056;-57
2022/08/15 10:55:28;;;;;;;8.25;5.55;;;;;;;29.85;100.00;98209.44;5048807;28;20107;-57
2022/08/15 10:58:00;;;;;;;6.90;4.75;;;;;;;30.13;100.00;98217.03;5048721;28;20055;-58
2022/08/15 11:00:45;;;;;;;8.80;4.95;;;;;;;30.39;100.00;98257.03;5128995;27;20058;-58
2022/08/15 11:03:18;;;;;;;8.52;5.00;;;;;;;30.45;100.00;98260.56;5152718;27;20137;-58
2022/08/15 11:05:53;;;;;;;8.38;5.20;;;;;;;30.05;100.00;98225.28;5152961;27;20552;-58
2022/08/15 11:08:20;;;;;;;6.32;4.47;;;;;;;30.34;100.00;98286.09;5152892;27;20454;-58
2022/08/15 11:10:47;;;;;;;8.00;4.15;;;;;;;30.23;100.00;98291.81;5152490;27;20137;-58
2022/08/15 11:13:17;;;;;;;6.93;4.40;;;;;;;29.90;100.00;98292.66;5152884;27;20489;-58
2022/08/15 11:15:54;;;;;;;11.77;4.28;;;;;;;29.58;100.00;98241.38;5152382;27;20042;-59
2022/08/15 11:18:28;;;;;;;9.85;4.82;;;;;;;29.74;100.00;98235.69;5152978;27;20046;-59
2022/08/15 11:21:01;;;;;;;5.55;4.35;;;;;;;29.90;100.00;98265.19;5152375;27;20050;-57
2022/08/15 11:23:33;;;;;;;9.82;4.40;;;;;;;30.36;100.00;98317.44;5152517;27;20055;-57
2022/08/15 11:26:00;;;;;;;6.32;4.40;;;;;;;30.05;100.00;98286.69;5152259;27;20050;-57
2022/08/15 11:28:28;;;;;;;6.28;4.07;;;;;;;30.13;100.00;98294.13;5152219;27;20058;-57
2022/08/15 11:31:01;;;;;;;6.68;3.70;;;;;;;30.12;100.00;98342.69;5152523;27;20111;-57
2022/08/15 11:33:34;;;;;;;8.55;4.57;;;;;;;29.90;100.00;98316.03;5151860;27;20051;-56
2022/08/15 11:36:07;;;;;;;4.95;4.15;;;;;;;29.85;100.00;98284.97;5152351;27;20398;-58
2022/08/15 11:38:35;;;;;;;8.13;4.43;;;;;;;29.75;100.00;98276.78;5152122;27;20133;-57
2022/08/15 11:41:02;;;;;;;8.45;4.82;;;;;;;30.04;100.00;98276.69;5152065;27;20051;-56
2022/08/15 11:43:30;;;;;;;7.95;4.03;;;;;;;30.31;100.00;98309.75;5152042;27;20078;-57
2022/08/15 11:45:57;;;;;;;6.88;4.50;;;;;;;29.68;100.00;98299.13;5152270;27;20061;-57